Time;durP1;ratioP1;P1;durP2;ratioP2;P2;SDS_P1;SDS_P2;PMS_P1;PMS_P2;Temp;Humidity;BMP_temperature;BMP_pressure;BME280_temperature;BME280_humidity;BME280_pressure;Samples;Min_cycle;Max_cycle;Signal;HPM_P1;HPM_P2
2021/10/08 00:00:55;;;;;;;35.78;4.00;;;;;;;;;;5026481;28;20030;-43
2021/10/08 00:03:22;;;;;;;29.98;3.90;;;;;;;;;;5024226;28;20108;-43
2021/10/08 00:05:49;;;;;;;48.72;4.82;;;;;;;;;;5024144;28;20090;-46
2021/10/08 00:08:16;;;;;;;57.83;5.03;;;;;;;;;;5022064;28;20061;-48
2021/10/08 00:10:43;;;;;;;40.22;4.65;;;;;;;;;;5024243;28;20667;-45
2021/10/08 00:13:10;;;;;;;37.80;4.70;;;;;;;;;;5020273;28;20116;-41
2021/10/08 00:15:37;;;;;;;40.45;4.07;;;;;;;;;;5009846;28;20681;-43
2021/10/08 00:18:04;;;;;;;40.63;4.70;;;;;;;;;;5028629;28;20068;-43
2021/10/08 00:20:31;;;;;;;32.42;4.32;;;;;;;;;;5026999;28;20037;-48
2021/10/08 00:22:58;;;;;;;42.60;4.85;;;;;;;;;;5005794;28;20030;-45
2021/10/08 00:25:25;;;;;;;40.80;4.20;;;;;;;;;;5018690;28;20025;-43
2021/10/08 00:27:52;;;;;;;39.20;4.82;;;;;;;;;;5015129;28;20124;-43
2021/10/08 00:30:19;;;;;;;42.17;5.05;;;;;;;;;;5022912;28;20036;-42
2021/10/08 00:32:46;;;;;;;35.10;4.15;;;;;;;;;;5022753;28;20038;-48
2021/10/08 00:35:14;;;;;;;41.05;4.85;;;;;;;;;;5030205;28;20026;-43
2021/10/08 00:37:41;;;;;;;29.45;4.07;;;;;;;;;;5022962;28;20053;-44
2021/10/08 00:40:08;;;;;;;29.80;3.80;;;;;;;;;;5028945;28;20013;-44
2021/10/08 00:42:35;;;;;;;39.10;4.40;;;;;;;;;;5022043;28;20521;-45
2021/10/08 00:45:02;;;;;;;25.35;4.28;;;;;;;;;;5031201;28;20119;-43
2021/10/08 00:47:29;;;;;;;24.63;4.20;;;;;;;;;;5026827;28;20025;-45
2021/10/08 00:49:56;;;;;;;27.10;4.30;;;;;;;;;;5027455;28;20024;-45
2021/10/08 00:52:25;;;;;;;25.52;3.80;;;;;;;;;;5027079;28;20056;-43
2021/10/08 00:54:52;;;;;;;25.10;3.30;;;;;;;;;;5021963;28;20377;-45
2021/10/08 00:57:19;;;;;;;30.45;4.50;;;;;;;;;;5024947;28;20036;-44
2021/10/08 00:59:46;;;;;;;24.73;3.67;;;;;;;;;;5027285;28;20108;-44
2021/10/08 01:02:13;;;;;;;21.48;3.40;;;;;;;;;;5009780;28;20022;-44
2021/10/08 01:04:40;;;;;;;27.02;4.28;;;;;;;;;;5026621;28;20041;-44
2021/10/08 01:07:07;;;;;;;28.48;3.50;;;;;;;;;;5027872;28;20029;-43
2021/10/08 01:09:34;;;;;;;17.70;3.95;;;;;;;;;;5027083;28;20049;-43
2021/10/08 01:12:01;;;;;;;27.80;4.00;;;;;;;;;;5028013;28;20041;-47
2021/10/08 01:14:28;;;;;;;34.53;3.70;;;;;;;;;;5024724;28;20033;-43
2021/10/08 01:16:55;;;;;;;31.55;4.53;;;;;;;;;;5028743;28;20021;-42
2021/10/08 01:19:22;;;;;;;30.33;3.75;;;;;;;;;;5023809;28;20026;-43
2021/10/08 01:21:49;;;;;;;19.52;3.25;;;;;;;;;;5025784;28;20021;-42
2021/10/08 01:24:16;;;;;;;25.85;3.58;;;;;;;;;;5024291;28;20083;-43
2021/10/08 01:26:43;;;;;;;21.35;3.40;;;;;;;;;;5021680;28;20018;-42
2021/10/08 01:29:10;;;;;;;21.48;2.97;;;;;;;;;;5024659;28;20041;-43
2021/10/08 01:31:38;;;;;;;26.08;3.70;;;;;;;;;;5028322;28;20415;-45
2021/10/08 01:34:05;;;;;;;23.58;3.45;;;;;;;;;;5027684;28;20122;-45
2021/10/08 01:36:32;;;;;;;22.50;3.42;;;;;;;;;;5025517;28;20033;-46
2021/10/08 01:38:59;;;;;;;25.63;3.38;;;;;;;;;;5028579;28;20021;-46
2021/10/08 01:41:26;;;;;;;23.58;3.33;;;;;;;;;;5034519;28;21072;-50
2021/10/08 01:43:53;;;;;;;24.83;3.53;;;;;;;;;;5026379;28;20019;-49
2021/10/08 01:46:20;;;;;;;31.15;3.92;;;;;;;;;;5030186;28;20396;-42
2021/10/08 01:48:47;;;;;;;33.85;3.50;;;;;;;;;;5034758;28;20028;-48
2021/10/08 01:51:14;;;;;;;30.10;4.10;;;;;;;;;;5010267;28;20034;-42
2021/10/08 01:53:41;;;;;;;31.23;3.40;;;;;;;;;;5030943;28;20029;-49
2021/10/08 01:56:08;;;;;;;39.42;3.47;;;;;;;;;;5030161;28;20100;-54
2021/10/08 01:58:35;;;;;;;22.92;3.00;;;;;;;;;;5030411;28;20026;-41
2021/10/08 02:01:02;;;;;;;17.52;3.13;;;;;;;;;;5031542;28;20049;-46
2021/10/08 02:03:29;;;;;;;23.92;3.55;;;;;;;;;;5031463;28;20018;-45
2021/10/08 02:05:56;;;;;;;23.42;3.53;;;;;;;;;;5031806;28;20029;-41
2021/10/08 02:08:23;;;;;;;12.75;2.67;;;;;;;;;;5031036;28;20358;-46
2021/10/08 02:10:50;;;;;;;14.20;2.92;;;;;;;;;;5030362;28;20320;-40
2021/10/08 02:13:18;;;;;;;13.55;2.42;;;;;;;;;;5014131;28;20034;-42
2021/10/08 02:15:46;;;;;;;16.55;2.78;;;;;;;;;;5031458;28;20024;-42
2021/10/08 02:18:13;;;;;;;15.27;2.65;;;;;;;;;;5032172;28;20025;-45
2021/10/08 02:20:41;;;;;;;13.75;2.92;;;;;;;;;;5033065;28;20589;-42
2021/10/08 02:23:10;;;;;;;17.10;2.75;;;;;;;;;;5033841;28;20419;-42
2021/10/08 02:25:37;;;;;;;15.57;3.05;;;;;;;;;;5033243;28;20594;-44
2021/10/08 02:28:04;;;;;;;16.02;3.35;;;;;;;;;;5032960;28;20069;-45
2021/10/08 02:30:31;;;;;;;14.60;2.90;;;;;;;;;;5033448;28;20036;-40
2021/10/08 02:32:58;;;;;;;15.18;2.33;;;;;;;;;;5033088;28;20037;-45
2021/10/08 02:35:25;;;;;;;18.65;2.60;;;;;;;;;;5033326;28;20023;-45
2021/10/08 02:37:52;;;;;;;13.48;2.50;;;;;;;;;;5033361;28;20092;-43
2021/10/08 02:40:19;;;;;;;16.02;2.65;;;;;;;;;;5032959;28;20421;-44
2021/10/08 02:42:47;;;;;;;12.23;2.17;;;;;;;;;;5033122;28;20025;-48
2021/10/08 02:45:15;;;;;;;12.05;2.40;;;;;;;;;;5033246;28;20022;-42
2021/10/08 02:47:42;;;;;;;13.68;2.30;;;;;;;;;;5032012;28;20111;-42
2021/10/08 02:50:10;;;;;;;17.15;2.95;;;;;;;;;;5032569;28;20018;-41
2021/10/08 02:52:37;;;;;;;12.68;2.60;;;;;;;;;;5032729;28;20037;-44
2021/10/08 02:55:08;;;;;;;16.30;2.25;;;;;;;;;;5032955;28;20097;-42
2021/10/08 02:57:38;;;;;;;12.13;2.97;;;;;;;;;;5032908;28;20024;-45
2021/10/08 03:00:09;;;;;;;14.05;2.47;;;;;;;;;;5032956;28;20025;-42
2021/10/08 03:02:36;;;;;;;14.48;2.55;;;;;;;;;;5033057;28;20013;-51
2021/10/08 03:05:03;;;;;;;10.75;2.42;;;;;;;;;;5032595;28;20862;-46
2021/10/08 03:07:30;;;;;;;8.52;1.85;;;;;;;;;;5032839;28;20389;-41
2021/10/08 03:09:57;;;;;;;14.93;2.70;;;;;;;;;;5015025;28;20488;-47
2021/10/08 03:12:25;;;;;;;9.48;2.47;;;;;;;;;;5032337;28;20092;-42
2021/10/08 03:14:52;;;;;;;11.05;2.05;;;;;;;;;;5032509;28;20029;-48
2021/10/08 03:17:19;;;;;;;12.40;1.90;;;;;;;;;;5032297;28;20029;-41
2021/10/08 03:19:46;;;;;;;7.45;2.00;;;;;;;;;;5032242;28;20022;-42
2021/10/08 03:22:13;;;;;;;8.68;2.35;;;;;;;;;;5032466;28;20022;-47
2021/10/08 03:24:40;;;;;;;10.27;2.22;;;;;;;;;;5032567;28;20096;-43
2021/10/08 03:27:07;;;;;;;9.57;1.92;;;;;;;;;;5032092;28;20021;-42
2021/10/08 03:29:34;;;;;;;11.02;1.90;;;;;;;;;;5032105;28;20124;-46
2021/10/08 03:32:01;;;;;;;8.35;1.80;;;;;;;;;;5032341;28;20037;-41
2021/10/08 03:34:28;;;;;;;9.77;1.75;;;;;;;;;;5014574;28;20022;-46
2021/10/08 03:37:02;;;;;;;11.73;1.75;;;;;;;;;;5032227;28;20026;-43
2021/10/08 03:39:33;;;;;;;8.95;1.65;;;;;;;;;;5032328;28;20037;-41
2021/10/08 03:42:00;;;;;;;8.68;1.75;;;;;;;;;;5032201;28;20107;-46
2021/10/08 03:44:35;;;;;;;8.60;1.90;;;;;;;;;;5032104;28;20018;-42
2021/10/08 03:47:03;;;;;;;8.45;1.90;;;;;;;;;;5031925;28;20025;-47
2021/10/08 03:49:30;;;;;;;6.70;1.63;;;;;;;;;;5032222;28;20109;-44
2021/10/08 03:51:57;;;;;;;10.38;1.98;;;;;;;;;;5031908;28;20045;-40
2021/10/08 03:54:24;;;;;;;7.65;1.50;;;;;;;;;;5032034;28;20022;-40
2021/10/08 03:56:51;;;;;;;8.32;1.90;;;;;;;;;;5032099;28;20052;-43
2021/10/08 03:59:18;;;;;;;7.72;1.50;;;;;;;;;;5032544;28;20627;-46
2021/10/08 04:01:45;;;;;;;7.45;2.03;;;;;;;;;;5036144;28;20072;-43
2021/10/08 04:04:12;;;;;;;7.43;1.50;;;;;;;;;;5036144;28;20022;-43
2021/10/08 04:06:39;;;;;;;8.88;2.17;;;;;;;;;;5035971;28;20469;-41
2021/10/08 04:09:07;;;;;;;7.72;1.77;;;;;;;;;;5035808;28;20572;-45
2021/10/08 04:11:34;;;;;;;6.18;1.77;;;;;;;;;;5036067;28;20392;-41
2021/10/08 04:14:01;;;;;;;7.40;1.60;;;;;;;;;;5018105;28;20037;-41
2021/10/08 04:16:29;;;;;;;6.85;1.45;;;;;;;;;;5035866;28;20072;-43
2021/10/08 04:18:56;;;;;;;5.88;1.60;;;;;;;;;;5036032;28;20018;-41
2021/10/08 04:21:23;;;;;;;8.30;1.70;;;;;;;;;;5035695;28;20030;-42
2021/10/08 04:23:50;;;;;;;6.40;1.50;;;;;;;;;;5035711;28;20022;-55
2021/10/08 04:26:17;;;;;;;3.92;1.40;;;;;;;;;;5017960;28;20475;-42
2021/10/08 04:28:44;;;;;;;7.43;1.65;;;;;;;;;;5035519;28;20125;-41
2021/10/08 04:31:11;;;;;;;7.15;1.50;;;;;;;;;;5035532;28;20032;-48
2021/10/08 04:33:38;;;;;;;6.40;1.40;;;;;;;;;;5035835;28;20489;-42
2021/10/08 04:36:05;;;;;;;6.55;1.48;;;;;;;;;;5035671;28;20030;-44
2021/10/08 04:38:32;;;;;;;6.07;1.30;;;;;;;;;;5035475;28;20036;-40
2021/10/08 04:41:00;;;;;;;6.40;1.33;;;;;;;;;;5035425;28;20021;-45
2021/10/08 04:43:27;;;;;;;7.95;1.63;;;;;;;;;;5035146;28;20481;-40
2021/10/08 04:45:54;;;;;;;7.13;1.58;;;;;;;;;;5035436;28;20037;-41
2021/10/08 04:48:21;;;;;;;5.25;1.40;;;;;;;;;;5035764;28;20385;-42
2021/10/08 04:50:49;;;;;;;7.07;1.60;;;;;;;;;;5035942;28;20376;-42
2021/10/08 04:53:20;;;;;;;7.30;1.58;;;;;;;;;;5035730;28;20034;-42
2021/10/08 04:55:48;;;;;;;6.83;1.43;;;;;;;;;;5035285;28;20384;-42
2021/10/08 04:58:16;;;;;;;5.43;1.30;;;;;;;;;;5035576;28;20416;-42
2021/10/08 05:00:45;;;;;;;3.88;1.30;;;;;;;;;;5035685;28;20028;-40
2021/10/08 05:03:14;;;;;;;7.82;1.50;;;;;;;;;;5035304;28;20036;-42
2021/10/08 05:05:47;;;;;;;6.63;1.40;;;;;;;;;;5035581;28;20024;-42
2021/10/08 05:08:15;;;;;;;5.50;1.27;;;;;;;;;;5035387;28;20034;-42
2021/10/08 05:10:43;;;;;;;3.80;1.20;;;;;;;;;;5034347;28;20021;-41
2021/10/08 05:13:10;;;;;;;3.75;1.20;;;;;;;;;;5034542;28;20072;-42
2021/10/08 05:15:37;;;;;;;4.85;1.27;;;;;;;;;;5034917;28;20388;-42
2021/10/08 05:18:04;;;;;;;4.82;1.40;;;;;;;;;;5035032;28;20391;-44
2021/10/08 05:20:31;;;;;;;4.20;1.27;;;;;;;;;;5034830;28;20022;-45
2021/10/08 05:22:58;;;;;;;3.78;1.20;;;;;;;;;;5035066;28;20350;-42
2021/10/08 05:25:26;;;;;;;8.27;1.27;;;;;;;;;;5034691;28;20191;-47
2021/10/08 05:27:53;;;;;;;5.00;1.25;;;;;;;;;;5034707;28;20049;-41
2021/10/08 05:30:20;;;;;;;4.45;1.20;;;;;;;;;;5016976;28;20056;-41
2021/10/08 05:32:47;;;;;;;5.38;1.30;;;;;;;;;;5034715;28;20455;-42
2021/10/08 05:35:14;;;;;;;5.07;1.40;;;;;;;;;;5034541;28;20022;-41
2021/10/08 05:37:41;;;;;;;6.07;1.60;;;;;;;;;;5034635;28;20483;-42
2021/10/08 05:40:08;;;;;;;5.13;1.35;;;;;;;;;;5034430;28;20384;-42
2021/10/08 05:42:35;;;;;;;4.43;1.20;;;;;;;;;;5034452;28;20017;-41
2021/10/08 05:45:02;;;;;;;4.63;1.30;;;;;;;;;;5034561;28;20377;-41
2021/10/08 05:47:29;;;;;;;5.60;1.33;;;;;;;;;;5034267;28;20030;-42
2021/10/08 05:49:56;;;;;;;4.50;1.13;;;;;;;;;;5034189;28;20091;-42
2021/10/08 05:52:23;;;;;;;5.13;1.50;;;;;;;;;;5034228;28;20457;-44
2021/10/08 05:54:50;;;;;;;5.55;1.10;;;;;;;;;;5033976;28;20377;-43
2021/10/08 05:57:17;;;;;;;6.15;1.55;;;;;;;;;;5034040;28;20028;-42
2021/10/08 05:59:44;;;;;;;8.85;1.02;;;;;;;;;;5034165;28;20362;-42
2021/10/08 06:02:12;;;;;;;5.43;1.35;;;;;;;;;;5033980;28;20079;-42
2021/10/08 06:04:39;;;;;;;3.20;1.05;;;;;;;;;;5034001;28;20370;-40
2021/10/08 06:07:07;;;;;;;3.92;0.90;;;;;;;;;;5034056;28;20021;-42
2021/10/08 06:09:35;;;;;;;3.05;1.00;;;;;;;;;;5033519;28;20018;-42
2021/10/08 06:12:02;;;;;;;5.13;1.20;;;;;;;;;;5033715;28;20034;-42
2021/10/08 06:14:29;;;;;;;3.35;0.98;;;;;;;;;;5033646;28;20022;-47
2021/10/08 06:16:57;;;;;;;5.38;1.40;;;;;;;;;;5033709;28;20029;-47
2021/10/08 06:19:24;;;;;;;6.97;1.33;;;;;;;;;;5033560;28;20029;-43
2021/10/08 06:21:51;;;;;;;4.22;1.40;;;;;;;;;;5033679;28;20448;-42
2021/10/08 06:24:18;;;;;;;5.72;1.30;;;;;;;;;;5033543;28;20029;-41
2021/10/08 06:26:45;;;;;;;4.35;1.25;;;;;;;;;;5033491;28;20520;-42
2021/10/08 06:29:12;;;;;;;5.88;1.30;;;;;;;;;;5033203;28;20489;-42
2021/10/08 06:31:39;;;;;;;2.92;1.00;;;;;;;;;;5033409;28;20033;-42
2021/10/08 06:34:06;;;;;;;4.32;1.10;;;;;;;;;;5033249;28;20488;-43
2021/10/08 06:36:33;;;;;;;4.60;1.20;;;;;;;;;;5015671;28;20039;-45
2021/10/08 06:39:00;;;;;;;3.58;1.00;;;;;;;;;;5033404;28;20029;-42
2021/10/08 06:41:27;;;;;;;6.15;1.38;;;;;;;;;;5032793;28;20029;-43
2021/10/08 06:43:54;;;;;;;3.88;0.95;;;;;;;;;;5032251;28;20488;-44
2021/10/08 06:46:21;;;;;;;3.20;1.10;;;;;;;;;;5032923;28;20036;-41
2021/10/08 06:48:48;;;;;;;4.75;1.25;;;;;;;;;;5032940;28;20029;-42
2021/10/08 06:51:15;;;;;;;2.78;0.80;;;;;;;;;;5032812;28;20461;-59
2021/10/08 06:53:42;;;;;;;7.80;1.30;;;;;;;;;;5033010;28;20034;-42
2021/10/08 06:56:09;;;;;;;4.85;1.10;;;;;;;;;;5015117;28;20025;-42
2021/10/08 06:58:36;;;;;;;3.95;1.00;;;;;;;;;;5015148;28;20476;-48
2021/10/08 07:01:03;;;;;;;5.30;1.33;;;;;;;;;;5033008;28;20084;-44
2021/10/08 07:03:30;;;;;;;6.32;1.38;;;;;;;;;;5032676;28;20028;-42
2021/10/08 07:05:57;;;;;;;4.05;1.23;;;;;;;;;;5032579;28;20049;-44
2021/10/08 07:08:24;;;;;;;3.67;1.02;;;;;;;;;;5014958;28;20503;-42
2021/10/08 07:10:51;;;;;;;6.57;1.15;;;;;;;;;;5032519;28;20393;-40
2021/10/08 07:13:19;;;;;;;4.65;1.08;;;;;;;;;;5032588;28;20045;-43
2021/10/08 07:15:46;;;;;;;4.43;1.05;;;;;;;;;;5032596;28;20018;-45
2021/10/08 07:18:16;;;;;;;4.47;0.95;;;;;;;;;;5032484;28;20053;-40
2021/10/08 07:20:45;;;;;;;2.22;1.00;;;;;;;;;;5032456;28;20029;-41
2021/10/08 07:23:13;;;;;;;3.38;1.05;;;;;;;;;;5032554;28;20488;-40
2021/10/08 07:25:40;;;;;;;3.05;0.80;;;;;;;;;;5032474;28;20080;-41
2021/10/08 07:28:07;;;;;;;5.45;1.23;;;;;;;;;;5032385;28;20484;-40
2021/10/08 07:30:34;;;;;;;4.22;1.33;;;;;;;;;;5032491;28;20036;-43
2021/10/08 07:33:01;;;;;;;3.58;1.00;;;;;;;;;;5032458;28;20469;-42
2021/10/08 07:35:28;;;;;;;4.03;1.15;;;;;;;;;;5031281;28;20030;-42
2021/10/08 07:37:55;;;;;;;2.75;1.02;;;;;;;;;;5032281;28;20096;-40
2021/10/08 07:40:22;;;;;;;4.40;1.00;;;;;;;;;;5032103;28;20040;-42
2021/10/08 07:42:49;;;;;;;4.43;1.10;;;;;;;;;;5032588;28;20535;-41
2021/10/08 07:45:16;;;;;;;5.05;1.52;;;;;;;;;;5032018;28;20033;-41
2021/10/08 07:47:43;;;;;;;3.58;0.80;;;;;;;;;;5032287;28;20469;-42
2021/10/08 07:50:11;;;;;;;3.85;0.93;;;;;;;;;;5031809;28;20026;-42
2021/10/08 07:52:38;;;;;;;5.90;1.02;;;;;;;;;;5032137;28;20087;-44
2021/10/08 07:55:06;;;;;;;5.63;1.05;;;;;;;;;;5032248;28;20092;-44
2021/10/08 07:57:34;;;;;;;2.92;1.27;;;;;;;;;;5031999;28;20029;-42
2021/10/08 08:00:01;;;;;;;6.03;1.38;;;;;;;;;;5031967;28;20053;-43
2021/10/08 08:02:29;;;;;;;2.83;0.88;;;;;;;;;;5032157;28;20473;-43
2021/10/08 08:04:56;;;;;;;2.72;1.00;;;;;;;;;;5014537;28;20032;-45
2021/10/08 08:07:24;;;;;;;2.88;1.00;;;;;;;;;;5031774;28;20029;-43
2021/10/08 08:09:51;;;;;;;4.32;1.13;;;;;;;;;;5014358;28;20025;-42
2021/10/08 08:12:18;;;;;;;2.83;1.25;;;;;;;;;;5031693;28;20048;-42
2021/10/08 08:14:45;;;;;;;3.53;1.15;;;;;;;;;;5030700;28;20079;-46
2021/10/08 08:17:12;;;;;;;3.88;1.33;;;;;;;;;;5030773;28;20036;-41
2021/10/08 08:19:42;;;;;;;2.45;0.90;;;;;;;;;;5031188;28;20022;-44
2021/10/08 08:22:09;;;;;;;4.53;1.10;;;;;;;;;;5031641;28;20036;-45
2021/10/08 08:24:36;;;;;;;5.65;1.13;;;;;;;;;;5031733;28;20017;-45
2021/10/08 08:27:04;;;;;;;6.05;1.20;;;;;;;;;;5031360;28;20048;-43
2021/10/08 08:29:31;;;;;;;8.45;1.27;;;;;;;;;;5031688;28;20136;-44
2021/10/08 08:31:58;;;;;;;6.68;1.45;;;;;;;;;;5031822;28;20029;-43
2021/10/08 08:34:26;;;;;;;7.22;1.42;;;;;;;;;;5031371;28;20366;-41
2021/10/08 08:36:53;;;;;;;10.77;1.02;;;;;;;;;;5031423;28;20030;-43
2021/10/08 08:39:21;;;;;;;8.00;1.13;;;;;;;;;;5031511;28;20056;-45
2021/10/08 08:41:48;;;;;;;4.10;1.02;;;;;;;;;;5030527;28;20013;-43
2021/10/08 08:44:16;;;;;;;7.30;1.38;;;;;;;;;;5013247;28;20032;-44
2021/10/08 08:46:44;;;;;;;9.55;1.60;;;;;;;;;;5033767;28;20044;-45
2021/10/08 08:49:11;;;;;;;3.83;1.30;;;;;;;;;;5034830;28;20017;-46
2021/10/08 08:51:38;;;;;;;3.97;1.08;;;;;;;;;;5034776;28;20025;-45
2021/10/08 08:54:08;;;;;;;5.70;1.17;;;;;;;;;;5034650;28;20396;-51
2021/10/08 08:56:36;;;;;;;6.35;1.98;;;;;;;;;;5035012;28;20483;-54
2021/10/08 08:59:08;;;;;;;8.23;1.23;;;;;;;;;;5035050;28;20022;-51
2021/10/08 09:01:35;;;;;;;4.60;1.08;;;;;;;;;;5035048;28;20021;-48
2021/10/08 09:04:02;;;;;;;7.65;1.13;;;;;;;;;;5034943;28;20385;-49
2021/10/08 09:06:31;;;;;;;8.55;1.20;;;;;;;;;;5035074;28;20128;-49
2021/10/08 09:08:58;;;;;;;5.97;1.10;;;;;;;;;;5034831;28;20025;-44
2021/10/08 09:11:37;;;;;;;9.73;1.58;;;;;;;;;;5034875;28;20077;-44
2021/10/08 09:14:19;;;;;;;9.13;1.25;;;;;;;;;;5034976;28;20095;-46
2021/10/08 09:17:04;;;;;;;14.52;1.75;;;;;;;;;;5034922;28;20029;-41
2021/10/08 09:19:50;;;;;;;5.05;1.13;;;;;;;;;;5017194;28;20037;-44
2021/10/08 09:22:37;;;;;;;4.50;1.23;;;;;;;;;;5034790;28;20021;-50
2021/10/08 09:25:15;;;;;;;8.68;1.05;;;;;;;;;;5021262;28;20496;-48
2021/10/08 09:27:46;;;;;;;4.35;1.10;;;;;;;;;;5034412;28;20057;-48
2021/10/08 09:30:13;;;;;;;6.85;1.20;;;;;;;;;;5034504;28;20481;-48
2021/10/08 09:32:51;;;;;;;11.95;1.92;;;;;;;;;;5016694;28;20037;-48
2021/10/08 09:35:19;;;;;;;9.23;1.13;;;;;;;;;;5034204;28;20036;-46
2021/10/08 09:37:54;;;;;;;15.15;1.52;;;;;;;;;;5034377;28;20029;-46
2021/10/08 09:40:29;;;;;;;4.28;1.38;;;;;;;;;;5034426;28;20376;-46
2021/10/08 09:43:01;;;;;;;5.25;1.70;;;;;;;;;;5034261;28;20022;-46
2021/10/08 09:45:38;;;;;;;7.57;1.27;;;;;;;;;;5034302;28;20052;-45
2021/10/08 09:48:05;;;;;;;5.32;1.58;;;;;;;;;;5034197;28;20913;-48
2021/10/08 09:50:33;;;;;;;10.77;1.45;;;;;;;;;;5034420;28;20032;-48
2021/10/08 09:53:13;;;;;;;6.05;1.33;;;;;;;;;;5016251;28;20370;-49
2021/10/08 09:55:42;;;;;;;8.88;1.40;;;;;;;;;;5033971;28;20022;-45
2021/10/08 09:58:09;;;;;;;7.15;1.48;;;;;;;;;;5033338;28;20101;-53
2021/10/08 10:00:38;;;;;;;5.18;1.35;;;;;;;;;;5016575;28;20029;-44
2021/10/08 10:03:06;;;;;;;7.40;1.40;;;;;;;;;;5034007;28;20017;-51
2021/10/08 10:05:33;;;;;;;6.55;1.17;;;;;;;;;;5033890;28;20029;-52
2021/10/08 10:08:00;;;;;;;5.32;1.33;;;;;;;;;;5034021;28;20021;-54
2021/10/08 10:10:28;;;;;;;5.35;1.17;;;;;;;;;;5033848;28;20027;-50
2021/10/08 10:12:56;;;;;;;6.97;1.42;;;;;;;;;;5033533;28;20535;-49
2021/10/08 10:15:24;;;;;;;6.72;1.15;;;;;;;;;;5016088;28;20477;-49
2021/10/08 10:17:51;;;;;;;9.27;1.20;;;;;;;;;;5033691;28;20022;-48
2021/10/08 10:20:18;;;;;;;4.38;0.98;;;;;;;;;;5033492;28;20026;-48
2021/10/08 10:22:47;;;;;;;3.33;1.00;;;;;;;;;;5033694;28;20026;-42
2021/10/08 10:25:14;;;;;;;11.73;1.35;;;;;;;;;;5033116;28;20076;-42
2021/10/08 10:27:41;;;;;;;6.65;1.35;;;;;;;;;;5033055;28;20413;-53
2021/10/08 10:30:09;;;;;;;6.82;1.30;;;;;;;;;;5033714;28;20021;-45
2021/10/08 10:32:37;;;;;;;4.60;1.30;;;;;;;;;;5033227;28;20401;-46
2021/10/08 10:35:05;;;;;;;5.80;1.50;;;;;;;;;;5015519;28;20025;-48
2021/10/08 10:37:39;;;;;;;3.83;1.00;;;;;;;;;;5033170;28;20503;-51
2021/10/08 10:40:17;;;;;;;5.20;1.13;;;;;;;;;;5033358;28;20024;-49
2021/10/08 10:42:44;;;;;;;4.45;1.10;;;;;;;;;;5033474;28;20056;-42
2021/10/08 10:45:21;;;;;;;4.50;1.10;;;;;;;;;;5033233;28;20144;-43
2021/10/08 10:48:08;;;;;;;5.50;1.20;;;;;;;;;;5033160;28;20081;-46
2021/10/08 10:50:48;;;;;;;6.38;1.00;;;;;;;;;;5032883;28;20064;-41
2021/10/08 10:53:15;;;;;;;3.72;1.13;;;;;;;;;;5032987;28;20036;-44
2021/10/08 10:55:42;;;;;;;4.55;1.23;;;;;;;;;;5015354;28;20057;-42
2021/10/08 10:58:11;;;;;;;9.18;1.48;;;;;;;;;;5032797;28;20064;-43
2021/10/08 11:00:44;;;;;;;3.72;0.90;;;;;;;;;;5032765;28;20053;-45
2021/10/08 11:03:15;;;;;;;3.83;1.00;;;;;;;;;;5032935;28;20037;-42
2021/10/08 11:06:02;;;;;;;4.30;1.30;;;;;;;;;;5032766;28;20018;-47
2021/10/08 11:08:29;;;;;;;4.28;1.10;;;;;;;;;;5032258;28;20108;-41
2021/10/08 11:11:02;;;;;;;3.42;1.17;;;;;;;;;;5032315;28;20053;-44
2021/10/08 11:13:30;;;;;;;3.78;1.08;;;;;;;;;;5032453;28;20030;-45
2021/10/08 11:16:02;;;;;;;4.28;1.92;;;;;;;;;;5014856;28;20021;-42
2021/10/08 11:18:35;;;;;;;3.90;1.13;;;;;;;;;;5032594;28;20396;-43
2021/10/08 11:21:02;;;;;;;2.05;0.90;;;;;;;;;;5032579;28;20477;-42
2021/10/08 11:23:32;;;;;;;3.97;1.02;;;;;;;;;;5032394;28;20037;-47
2021/10/08 11:26:00;;;;;;;6.18;1.23;;;;;;;;;;5032502;28;20492;-43
2021/10/08 11:28:32;;;;;;;4.88;1.10;;;;;;;;;;5032114;28;20073;-47
2021/10/08 11:31:00;;;;;;;4.95;1.05;;;;;;;;;;5032368;28;20096;-42
2021/10/08 11:33:34;;;;;;;4.40;1.02;;;;;;;;;;5032380;28;20041;-45
2021/10/08 11:36:11;;;;;;;4.70;1.05;;;;;;;;;;5032135;28;20018;-47
2021/10/08 11:38:38;;;;;;;3.33;1.05;;;;;;;;;;5032269;28;20380;-51
2021/10/08 11:41:22;;;;;;;5.13;1.02;;;;;;;;;;5032135;28;20049;-48
2021/10/08 11:43:54;;;;;;;4.45;1.05;;;;;;;;;;5032263;28;20026;-49
2021/10/08 11:49:17;;;;;;;5.18;1.52;;;;;;;;;;5032186;28;20014;-42
2021/10/08 11:51:42;;;;;;;4.95;1.35;;;;;;;;;;5031762;28;20033;-48
2021/10/08 11:54:09;;;;;;;3.80;1.17;;;;;;;;;;5032321;28;20436;-42
2021/10/08 11:56:36;;;;;;;9.60;1.27;;;;;;;;;;5032032;28;20072;-42
2021/10/08 11:59:08;;;;;;;3.50;1.13;;;;;;;;;;5014584;28;20099;-44
2021/10/08 12:01:35;;;;;;;3.25;1.20;;;;;;;;;;5032037;28;20029;-42
2021/10/08 12:04:03;;;;;;;5.22;1.10;;;;;;;;;;5031984;28;20030;-49
2021/10/08 12:06:31;;;;;;;4.50;1.10;;;;;;;;;;5031672;28;20033;-43
2021/10/08 12:09:03;;;;;;;6.30;1.20;;;;;;;;;;5032144;28;20025;-44
2021/10/08 12:11:31;;;;;;;2.65;1.23;;;;;;;;;;5031809;28;20036;-42
2021/10/08 12:14:03;;;;;;;3.25;1.20;;;;;;;;;;5031761;28;20025;-42
2021/10/08 12:16:41;;;;;;;4.53;1.48;;;;;;;;;;5031993;28;20025;-41
2021/10/08 12:19:10;;;;;;;3.97;1.42;;;;;;;;;;5014217;28;20029;-49
2021/10/08 12:21:41;;;;;;;7.28;1.67;;;;;;;;;;5034573;28;20028;-45
2021/10/08 12:24:20;;;;;;;6.93;1.53;;;;;;;;;;5035795;28;20022;-53
2021/10/08 12:26:55;;;;;;;4.47;1.30;;;;;;;;;;5035531;28;20029;-47
2021/10/08 12:29:22;;;;;;;3.53;1.45;;;;;;;;;;5035594;28;20053;-43
2021/10/08 12:31:53;;;;;;;7.28;1.48;;;;;;;;;;5035531;28;20026;-46
2021/10/08 12:34:52;;;;;;;3.45;1.30;;;;;;;;;;5035761;28;20029;-44
2021/10/08 12:37:24;;;;;;;4.93;1.50;;;;;;;;;;4992085;28;20041;-42
2021/10/08 12:40:00;;;;;;;5.68;1.70;;;;;;;;;;5035445;28;20488;-46
2021/10/08 12:42:29;;;;;;;4.78;1.48;;;;;;;;;;5035476;28;20057;-44
2021/10/08 12:45:00;;;;;;;7.03;1.73;;;;;;;;;;5035395;28;20017;-45
2021/10/08 12:47:47;;;;;;;5.03;1.70;;;;;;;;;;5035454;28;20481;-43
2021/10/08 12:50:19;;;;;;;4.32;1.60;;;;;;;;;;5035506;28;20066;-41
2021/10/08 12:52:48;;;;;;;3.60;1.70;;;;;;;;;;5035302;28;20033;-44
2021/10/08 12:55:19;;;;;;;4.10;1.80;;;;;;;;;;5017800;28;20116;-47
2021/10/08 12:58:06;;;;;;;7.00;1.75;;;;;;;;;;5035159;28;20030;-42
2021/10/08 13:00:37;;;;;;;6.82;1.73;;;;;;;;;;5035217;28;20029;-55
2021/10/08 13:03:05;;;;;;;6.13;1.73;;;;;;;;;;5035169;28;20017;-53
2021/10/08 13:05:39;;;;;;;4.43;1.65;;;;;;;;;;5035056;28;20064;-53
2021/10/08 13:08:14;;;;;;;3.80;1.80;;;;;;;;;;5034922;28;20021;-45
2021/10/08 13:10:54;;;;;;;4.20;1.65;;;;;;;;;;5017510;28;20028;-58
2021/10/08 13:13:22;;;;;;;5.20;1.70;;;;;;;;;;5035005;28;20543;-50
2021/10/08 13:15:49;;;;;;;4.03;1.38;;;;;;;;;;5034801;28;20108;-52
2021/10/08 13:18:16;;;;;;;3.92;1.77;;;;;;;;;;5034389;28;20021;-41
2021/10/08 13:20:47;;;;;;;5.03;1.83;;;;;;;;;;5034996;28;20022;-52
2021/10/08 13:23:15;;;;;;;6.97;1.83;;;;;;;;;;5034879;28;20025;-48
2021/10/08 13:25:43;;;;;;;5.20;2.03;;;;;;;;;;5034547;28;20112;-43
2021/10/08 13:28:11;;;;;;;6.05;2.10;;;;;;;;;;5034212;28;20048;-44
2021/10/08 13:30:38;;;;;;;6.65;2.00;;;;;;;;;;5034711;28;20009;-47
2021/10/08 13:33:05;;;;;;;8.32;1.95;;;;;;;;;;5033622;28;20025;-46
2021/10/08 13:35:33;;;;;;;2.58;1.42;;;;;;;;;;5034469;28;20028;-44
2021/10/08 13:38:00;;;;;;;4.95;2.00;;;;;;;;;;5034485;28;20407;-42
2021/10/08 13:40:27;;;;;;;5.22;1.77;;;;;;;;;;5034329;28;20041;-44
2021/10/08 13:42:54;;;;;;;7.13;1.80;;;;;;;;;;5034316;28;20025;-45
2021/10/08 13:45:23;;;;;;;5.18;2.00;;;;;;;;;;5034226;28;20385;-48
2021/10/08 13:47:50;;;;;;;6.47;1.70;;;;;;;;;;5034266;28;20030;-50
2021/10/08 13:50:17;;;;;;;8.00;2.10;;;;;;;;;;5034321;28;20014;-56
2021/10/08 13:52:44;;;;;;;5.07;1.88;;;;;;;;;;5034352;28;20029;-55
2021/10/08 13:55:11;;;;;;;7.57;2.10;;;;;;;;;;5034610;28;20013;-52
2021/10/08 13:57:38;;;;;;;7.95;1.90;;;;;;;;;;5033953;28;20025;-55
2021/10/08 14:00:06;;;;;;;5.07;1.83;;;;;;;;;;5034039;28;20024;-48
2021/10/08 14:02:43;;;;;;;10.48;2.00;;;;;;;;;;5033808;28;20032;-47
2021/10/08 14:05:22;;;;;;;9.48;1.92;;;;;;;;;;5033779;28;20025;-47
2021/10/08 14:10:32;;;;;;;7.97;2.65;;;;;;;;;;5033840;28;20021;-46
2021/10/08 14:12:59;;;;;;;15.32;2.22;;;;;;;;;;5033872;28;20116;-45
2021/10/08 14:15:27;;;;;;;8.30;2.08;;;;;;;;;;5033951;28;20013;-44
2021/10/08 14:17:55;;;;;;;9.88;2.83;;;;;;;;;;5033428;28;20029;-47
2021/10/08 14:20:22;;;;;;;10.10;2.15;;;;;;;;;;5033549;28;20018;-42
2021/10/08 14:22:49;;;;;;;9.65;2.10;;;;;;;;;;5033617;28;20032;-42
2021/10/08 14:25:18;;;;;;;11.55;2.35;;;;;;;;;;5033306;28;20021;-44
2021/10/08 14:27:45;;;;;;;10.27;2.42;;;;;;;;;;5033206;28;20045;-46
2021/10/08 14:30:13;;;;;;;11.35;2.47;;;;;;;;;;5033882;28;20440;-42
2021/10/08 14:32:40;;;;;;;7.03;2.28;;;;;;;;;;5033303;28;20172;-43
2021/10/08 14:35:08;;;;;;;9.63;2.33;;;;;;;;;;5033360;28;20022;-42
2021/10/08 14:37:36;;;;;;;7.03;2.25;;;;;;;;;;5033138;28;20036;-44
2021/10/08 14:40:03;;;;;;;9.27;2.15;;;;;;;;;;5033249;28;20100;-46
2021/10/08 14:42:40;;;;;;;13.30;2.10;;;;;;;;;;5015157;28;20025;-49
2021/10/08 14:45:07;;;;;;;12.98;2.72;;;;;;;;;;5033258;28;20022;-40
2021/10/08 14:47:34;;;;;;;9.35;1.98;;;;;;;;;;5033313;28;20025;-46
2021/10/08 14:50:02;;;;;;;17.17;2.55;;;;;;;;;;5033091;28;20487;-48
2021/10/08 14:52:30;;;;;;;11.93;2.42;;;;;;;;;;5032845;28;20030;-55